Details for Ryanair at LGKR




Go Back


Latest METAR
Local Time

LGKR 211420Z 12014KT 7000 RA SCT013 BKN025 OVC080 12/10 Q1002 NOSIG

21/02/2018, 16:53:48

Description
Results
Ryanair Logo
Number of Pilots based at LGKR
0 Pilots Based here
Number of Ryanair Flights Departed from LGKR
2 Flights Departed
Number of Ryanair Flights Arrived at LGKR
5 Flights Arrived
Number of Ryanair Schedules Departing from LGKR
14 Schedules
Number of Ryanair Schedules Arriving at LGKR
13 Schedules
Number of Ryanair Schedules Departing from LGKR availible today
2 Schedules Today
Number of Ryanair Schedules Arriving at LGKR availible today
2 Schedules Today
Average Landing Rate at LGKR
-259 fpm
Ryanair Average Landing Rate at LGKR
-227 fpm
Total Fuel Purchased at LGKR by Ryanair
13,593.71 kgs / 29,968.69 lbs

Pilots Based at LGKR


Pilot ID
Pilot Name
Pilot Rank
No. of Flights
No. of Flying Hours
There are no pilots assigned to this hub!   Will you be the first?
Content